Skip Navigation LinksHome page > Weather > Current weather Skip Navigation Links

Current Weather

Ronald Reagan Washington National, Washington

For information only: do not use for flight planning or navigation.
Latest weather
Observation time Thursday, May 28, 2015 2:52 AM EDT
Local time Thursday, May 28, 2015 3:39 AM EDT
Flight conditions Visual Meteorological Conditions
Winds
Wind direction South (190°)
Wind speed 7 mph
Visibility 10 mi.
Sky condition
Ceiling unlimited
Cloud layer scattered clouds 25,000 ft.
Temperature 75°F
Dewpoint 68°F
Altimeter 30.12 in.Hg
Derived measurements
Relative humidity 79%
Density altitude 1139 ft.
Sea-level pressure 30.12 in.Hg
Remarks
Automated weather observing station with precipitation discriminator.
METAR KDCA 280652Z 19006KT 10SM SCT250 24/20 A3012 RMK AO2 SLP200 T02390200

Settings

Location code

InnerDrive.Weather 4.0.5567.0 Release CLR 4.0.30319.34014
Copyright ©2015 Inner Drive Technology. All rights reserved. Portions Copyright ©1986-2015 David Braverman.

Find weather

Site navigation


Skip Navigation Links

Place info

Page info

PayPal - The safer, easier way to pay online!

Return home.

Copyright ©2015 Inner Drive Technology. Purveyors of fine, hand-crafted computer software. Page printed 2015-05-28T07:39:47 UTC.